createdAt,value
2023-01-27T00:00:20.580Z,28.88
2023-01-27T00:02:48.010Z,28.77
2023-01-27T00:05:16.214Z,28.73
2023-01-27T00:07:46.677Z,29.90
2023-01-27T00:10:15.850Z,26.00
2023-01-27T00:13:02.047Z,29.17
2023-01-27T00:15:29.670Z,23.73
2023-01-27T00:17:56.916Z,27.13
2023-01-27T00:20:42.957Z,26.30
2023-01-27T00:23:36.804Z,23.00
2023-01-27T00:26:06.855Z,25.92
2023-01-27T00:28:37.661Z,22.10
2023-01-27T00:31:06.159Z,19.33
2023-01-27T00:33:34.443Z,20.83
2023-01-27T00:36:06.497Z,19.33
2023-01-27T00:38:40.810Z,20.30
2023-01-27T00:41:20.774Z,23.50
2023-01-27T00:43:52.350Z,30.53
2023-01-27T00:46:20.609Z,20.45
2023-01-27T00:48:48.051Z,19.38
2023-01-27T00:51:15.587Z,18.67
2023-01-27T00:53:42.925Z,18.90
2023-01-27T00:56:10.596Z,21.20
2023-01-27T00:58:37.911Z,20.38
2023-01-27T01:01:07.263Z,22.17
2023-01-27T01:03:35.150Z,18.00
2023-01-27T01:06:04.988Z,21.15
2023-01-27T01:08:32.990Z,18.70
2023-01-27T01:11:00.415Z,22.42
2023-01-27T01:13:28.474Z,16.98
2023-01-27T01:15:56.285Z,19.90
2023-01-27T01:18:23.864Z,20.05
2023-01-27T01:20:51.170Z,16.57
2023-01-27T01:23:18.504Z,22.98
2023-01-27T01:25:53.358Z,21.65
2023-01-27T01:28:21.016Z,21.73
2023-01-27T01:30:48.272Z,24.50
2023-01-27T01:33:16.225Z,21.43
2023-01-27T01:35:43.478Z,21.17
2023-01-27T01:38:10.884Z,21.63
2023-01-27T01:40:44.365Z,23.55
2023-01-27T01:43:16.178Z,23.67
2023-01-27T01:45:45.426Z,19.87
2023-01-27T01:48:17.047Z,15.05
2023-01-27T01:50:47.600Z,17.83
2023-01-27T01:53:14.953Z,16.63
2023-01-27T01:55:42.243Z,14.65
2023-01-27T01:58:10.695Z,13.73
2023-01-27T02:00:37.919Z,15.63
2023-01-27T02:03:05.358Z,15.63
2023-01-27T02:05:37.967Z,15.57
2023-01-27T02:08:12.188Z,11.48
2023-01-27T02:10:39.943Z,14.13
2023-01-27T02:13:07.872Z,14.50
2023-01-27T02:15:36.660Z,13.30
2023-01-27T02:18:04.079Z,13.93
2023-01-27T02:20:50.567Z,13.57
2023-01-27T02:23:18.631Z,12.93
2023-01-27T02:25:51.365Z,12.82
2023-01-27T02:28:18.745Z,12.27
2023-01-27T02:30:46.076Z,11.98
2023-01-27T02:33:14.079Z,11.82
2023-01-27T02:36:01.397Z,12.90
2023-01-27T02:38:31.722Z,12.02
2023-01-27T02:41:01.955Z,14.25
2023-01-27T02:43:29.368Z,12.20
2023-01-27T02:45:56.644Z,13.13
2023-01-27T02:48:25.203Z,13.40
2023-01-27T02:50:52.528Z,11.45
2023-01-27T02:53:20.114Z,13.32
2023-01-27T02:55:47.410Z,13.35
2023-01-27T02:58:16.502Z,14.50
2023-01-27T03:00:47.666Z,11.57
2023-01-27T03:03:15.148Z,12.35
2023-01-27T03:05:42.524Z,14.07
2023-01-27T03:08:09.912Z,14.77
2023-01-27T03:10:37.196Z,15.02
2023-01-27T03:13:04.638Z,12.93
2023-01-27T03:15:50.524Z,15.07
2023-01-27T03:18:17.975Z,13.50
2023-01-27T03:20:46.986Z,15.65
2023-01-27T03:23:18.638Z,14.68
2023-01-27T03:25:49.963Z,11.10
2023-01-27T03:28:17.447Z,14.77
2023-01-27T03:30:59.878Z,12.23
2023-01-27T03:33:34.764Z,13.30
2023-01-27T03:36:27.878Z,13.63
2023-01-27T03:39:13.792Z,14.77
2023-01-27T03:41:59.617Z,13.77
2023-01-27T03:44:45.970Z,13.13
2023-01-27T03:47:13.321Z,15.90
2023-01-27T03:49:40.595Z,15.30
2023-01-27T03:52:07.928Z,16.83
2023-01-27T03:54:35.186Z,16.88
2023-01-27T03:57:06.391Z,14.30
2023-01-27T03:59:35.358Z,16.73
2023-01-27T04:02:21.333Z,16.48
2023-01-27T04:05:07.473Z,15.73
2023-01-27T04:07:36.273Z,17.15
2023-01-27T04:10:04.801Z,17.05
2023-01-27T04:12:32.587Z,16.15
2023-01-27T04:15:00.203Z,16.40
2023-01-27T04:17:27.509Z,16.70
2023-01-27T04:19:54.808Z,17.40
2023-01-27T04:22:22.217Z,20.20
2023-01-27T04:24:50.375Z,15.32
2023-01-27T04:27:19.018Z,14.98
2023-01-27T04:29:46.237Z,16.97
2023-01-27T04:32:13.966Z,16.25
2023-01-27T04:34:41.312Z,15.63
2023-01-27T04:37:08.843Z,15.50
2023-01-27T04:39:36.165Z,16.65
2023-01-27T04:42:03.628Z,17.23
2023-01-27T04:44:30.870Z,16.10
2023-01-27T04:46:58.188Z,13.40
2023-01-27T04:49:27.182Z,12.93
2023-01-27T04:51:55.372Z,14.55
2023-01-27T04:54:22.688Z,12.90
2023-01-27T04:56:58.095Z,14.15
2023-01-27T04:59:25.471Z,14.15
2023-01-27T05:01:52.797Z,10.32
2023-01-27T05:04:20.240Z,12.20
2023-01-27T05:06:47.503Z,11.17
2023-01-27T05:09:14.862Z,10.02
2023-01-27T05:11:42.185Z,12.98
2023-01-27T05:14:09.573Z,14.13
2023-01-27T05:16:38.585Z,14.40
2023-01-27T05:19:06.052Z,12.60
2023-01-27T05:21:33.303Z,11.32
2023-01-27T05:24:00.670Z,12.18
2023-01-27T05:26:28.343Z,12.57
2023-01-27T05:28:57.307Z,12.98
2023-01-27T05:31:26.601Z,12.63
2023-01-27T05:33:54.689Z,9.45
2023-01-27T05:36:23.043Z,12.38
2023-01-27T05:38:50.405Z,12.45
2023-01-27T05:41:18.452Z,10.88
2023-01-27T05:43:46.621Z,11.00
2023-01-27T05:46:15.529Z,13.32
2023-01-27T05:48:44.662Z,12.15
2023-01-27T05:51:14.706Z,11.60
2023-01-27T05:53:43.266Z,11.20
2023-01-27T05:56:11.632Z,12.50
2023-01-27T05:58:39.098Z,14.55
2023-01-27T06:01:33.782Z,12.40
2023-01-27T06:04:01.430Z,11.57
2023-01-27T06:06:29.880Z,12.55
2023-01-27T06:08:57.445Z,12.60
2023-01-27T06:11:24.961Z,12.63
2023-01-27T06:13:53.109Z,15.38
2023-01-27T06:16:21.026Z,15.43
2023-01-27T06:18:49.097Z,17.80
2023-01-27T06:21:16.507Z,12.90
2023-01-27T06:23:43.926Z,13.88
2023-01-27T06:26:13.209Z,14.40
2023-01-27T06:28:40.688Z,15.38
2023-01-27T06:31:12.624Z,18.10
2023-01-27T06:33:42.518Z,19.37
2023-01-27T06:36:11.947Z,16.00
2023-01-27T06:38:39.382Z,17.20
2023-01-27T06:41:07.149Z,18.73
2023-01-27T06:43:34.902Z,14.98
2023-01-27T06:46:05.393Z,11.97
2023-01-27T06:48:33.498Z,15.00
2023-01-27T06:51:00.981Z,15.90
2023-01-27T06:53:28.756Z,16.65
2023-01-27T06:56:00.741Z,18.10
2023-01-27T06:58:30.207Z,13.47
2023-01-27T07:00:57.733Z,25.42
2023-01-27T07:03:29.148Z,11.75
2023-01-27T07:06:00.381Z,12.73
2023-01-27T07:08:30.683Z,14.00
2023-01-27T07:10:58.736Z,17.23
2023-01-27T07:13:26.356Z,16.92
2023-01-27T07:15:55.502Z,18.02
2023-01-27T07:18:26.148Z,15.50
2023-01-27T07:20:59.976Z,17.25
2023-01-27T07:23:43.657Z,16.53
2023-01-27T07:26:24.508Z,15.13
2023-01-27T07:28:53.146Z,17.13
2023-01-27T07:31:21.135Z,15.48
2023-01-27T07:33:50.559Z,16.05
2023-01-27T07:36:51.754Z,15.70
2023-01-27T07:39:09.392Z,13.35
2023-01-27T07:41:39.878Z,14.10
2023-01-27T07:44:08.287Z,12.38
2023-01-27T07:46:49.434Z,16.85
2023-01-27T07:49:17.313Z,14.10
2023-01-27T07:51:44.808Z,15.23
2023-01-27T07:54:12.811Z,13.02
2023-01-27T07:56:43.608Z,14.48
2023-01-27T07:59:11.307Z,16.52
2023-01-27T08:01:39.921Z,16.43
2023-01-27T08:04:10.485Z,14.60
2023-01-27T08:06:39.492Z,14.15
2023-01-27T08:09:07.410Z,13.07
2023-01-27T08:11:55.537Z,13.73
2023-01-27T08:14:23.227Z,16.37
2023-01-27T08:16:51.155Z,15.82
2023-01-27T08:19:19.038Z,14.13
2023-01-27T08:21:46.751Z,14.80
2023-01-27T08:24:14.286Z,15.40
2023-01-27T08:26:41.915Z,12.63
2023-01-27T08:29:09.638Z,12.95
2023-01-27T08:31:37.143Z,18.13
2023-01-27T08:34:04.727Z,13.65
2023-01-27T08:36:32.378Z,14.45
2023-01-27T08:39:00.569Z,13.43
2023-01-27T08:41:28.123Z,15.27
2023-01-27T08:43:55.886Z,12.45
2023-01-27T08:46:26.614Z,14.10
2023-01-27T08:48:54.383Z,15.25
2023-01-27T08:51:21.907Z,13.87
2023-01-27T08:53:49.486Z,12.77
2023-01-27T08:56:16.811Z,11.55
2023-01-27T08:58:48.365Z,15.77
2023-01-27T09:01:20.462Z,12.68
2023-01-27T09:03:48.206Z,14.50
2023-01-27T09:06:16.745Z,14.02
2023-01-27T09:09:05.701Z,13.05
2023-01-27T09:11:33.449Z,16.17
2023-01-27T09:14:01.012Z,15.45
2023-01-27T09:16:29.238Z,16.93
2023-01-27T09:18:58.033Z,14.05
2023-01-27T09:21:26.400Z,15.85
2023-01-27T09:23:53.742Z,12.98
2023-01-27T09:26:29.667Z,12.07
2023-01-27T09:28:57.690Z,13.07
2023-01-27T09:31:25.504Z,12.32
2023-01-27T09:33:53.434Z,14.18
2023-01-27T09:36:22.090Z,12.20
2023-01-27T09:38:55.906Z,13.52
2023-01-27T09:41:35.630Z,12.43
2023-01-27T09:44:22.307Z,11.77
2023-01-27T09:47:02.371Z,12.63
2023-01-27T09:49:59.895Z,15.13
2023-01-27T09:52:48.692Z,13.70
2023-01-27T09:55:34.612Z,14.83
2023-01-27T09:58:08.287Z,16.85
2023-01-27T10:00:46.638Z,16.17
2023-01-27T10:03:23.822Z,15.05
2023-01-27T10:06:10.744Z,14.82
2023-01-27T10:09:44.040Z,20.57
2023-01-27T10:12:43.350Z,12.38
2023-01-27T10:15:17.177Z,15.75
2023-01-27T10:18:19.433Z,14.25
2023-01-27T10:21:18.252Z,14.02
2023-01-27T10:24:10.081Z,15.87
2023-01-27T10:26:50.492Z,16.20
2023-01-27T10:29:30.144Z,13.82
2023-01-27T10:32:37.900Z,19.20
2023-01-27T10:35:10.248Z,19.15
2023-01-27T10:37:46.979Z,17.20
2023-01-27T10:40:27.778Z,21.75
2023-01-27T10:43:08.397Z,15.88
2023-01-27T10:45:45.796Z,16.20
2023-01-27T10:48:30.697Z,14.48
2023-01-27T10:51:17.550Z,16.50
2023-01-27T10:53:50.630Z,13.63
2023-01-27T10:56:25.015Z,13.93
2023-01-27T10:59:22.718Z,14.15
2023-01-27T11:01:53.661Z,13.57
2023-01-27T11:04:24.232Z,13.97
2023-01-27T11:06:52.090Z,16.20
2023-01-27T11:09:28.932Z,14.25
2023-01-27T11:12:03.002Z,12.95
2023-01-27T11:14:32.619Z,11.75
2023-01-27T11:17:28.225Z,13.67
2023-01-27T11:20:06.653Z,13.38
2023-01-27T11:23:05.211Z,12.60
2023-01-27T11:26:12.463Z,12.38
2023-01-27T11:28:52.445Z,12.35
2023-01-27T11:31:37.754Z,14.57
2023-01-27T11:34:13.824Z,14.25
2023-01-27T11:36:42.159Z,15.55
2023-01-27T11:39:12.381Z,13.43
2023-01-27T11:41:54.388Z,14.27
2023-01-27T11:44:26.849Z,12.03
2023-01-27T11:46:54.872Z,16.38
2023-01-27T11:49:26.356Z,14.10
2023-01-27T11:52:06.364Z,18.45
2023-01-27T11:54:42.380Z,16.30
2023-01-27T11:57:18.592Z,17.23
2023-01-27T11:59:47.539Z,18.08
2023-01-27T12:02:44.845Z,15.05
2023-01-27T12:05:19.544Z,13.60
2023-01-27T12:07:56.396Z,18.98
2023-01-27T12:10:39.373Z,14.60
2023-01-27T12:13:20.181Z,16.60
2023-01-27T12:15:59.086Z,15.40
2023-01-27T12:18:26.568Z,25.00
2023-01-27T12:20:59.392Z,15.90
2023-01-27T12:23:36.594Z,19.33
2023-01-27T12:26:08.357Z,16.88
2023-01-27T12:28:49.418Z,16.23
2023-01-27T12:31:29.429Z,18.48
2023-01-27T12:34:06.125Z,16.05
2023-01-27T12:36:37.857Z,17.77
2023-01-27T12:39:08.986Z,16.67
2023-01-27T12:41:39.938Z,17.88
2023-01-27T12:44:17.897Z,19.05
2023-01-27T12:47:13.473Z,19.52
2023-01-27T12:49:43.774Z,16.97
2023-01-27T12:52:20.910Z,14.68
2023-01-27T12:54:51.351Z,18.83
2023-01-27T12:57:23.171Z,19.20
2023-01-27T13:00:00.654Z,23.27
2023-01-27T13:02:32.271Z,20.10
2023-01-27T13:05:04.031Z,17.58
2023-01-27T13:07:52.534Z,24.45
2023-01-27T13:10:23.652Z,22.40
2023-01-27T13:12:57.644Z,20.98
2023-01-27T13:15:28.678Z,18.90
2023-01-27T13:18:00.289Z,17.88
2023-01-27T13:20:31.127Z,22.85
2023-01-27T13:23:20.659Z,20.92
2023-01-27T13:26:15.416Z,18.55
2023-01-27T13:29:04.544Z,21.37
2023-01-27T13:31:59.331Z,20.27
2023-01-27T13:34:45.317Z,23.60
2023-01-27T13:37:19.173Z,21.52
2023-01-27T13:40:17.348Z,24.40
2023-01-27T13:43:09.369Z,19.80
2023-01-27T13:45:53.554Z,24.20
2023-01-27T13:48:35.549Z,22.70
2023-01-27T13:51:11.884Z,27.20
2023-01-27T13:53:39.502Z,24.17
2023-01-27T13:56:21.757Z,23.20
2023-01-27T13:59:01.967Z,19.60
2023-01-27T14:01:41.351Z,26.20
2023-01-27T14:04:36.242Z,28.48
2023-01-27T14:07:15.777Z,25.20
2023-01-27T14:09:49.783Z,25.23
2023-01-27T14:12:42.632Z,25.58
2023-01-27T14:15:30.093Z,25.35
2023-01-27T14:18:00.441Z,23.13
2023-01-27T14:20:55.710Z,29.08
2023-01-27T14:23:51.128Z,27.80
2023-01-27T14:26:37.244Z,28.50
2023-01-27T14:29:32.084Z,27.23
2023-01-27T14:32:26.704Z,24.73
2023-01-27T14:35:25.158Z,26.20
2023-01-27T14:38:40.292Z,28.37
2023-01-27T14:41:23.307Z,26.95
2023-01-27T14:44:14.558Z,29.95
2023-01-27T14:47:01.673Z,25.25
2023-01-27T14:49:47.050Z,26.63
2023-01-27T14:52:20.531Z,24.93
2023-01-27T14:55:15.990Z,30.38
2023-01-27T14:57:43.497Z,26.85
2023-01-27T15:00:19.589Z,21.13
2023-01-27T15:03:11.857Z,28.52
2023-01-27T15:05:50.980Z,21.73
2023-01-27T15:08:36.124Z,24.48
2023-01-27T15:11:22.216Z,24.63
2023-01-27T15:14:04.238Z,28.25
2023-01-27T15:16:38.321Z,23.67
2023-01-27T15:19:19.288Z,23.97
2023-01-27T15:22:16.975Z,24.35
2023-01-27T15:25:06.396Z,22.65
2023-01-27T15:27:34.649Z,27.05
2023-01-27T15:30:08.323Z,29.17
2023-01-27T15:32:39.570Z,31.20
2023-01-27T15:35:25.048Z,29.27
2023-01-27T15:38:00.115Z,26.77
2023-01-27T15:40:27.878Z,32.75
2023-01-27T15:42:58.212Z,27.08
2023-01-27T15:45:36.278Z,30.37
2023-01-27T15:48:10.198Z,29.83
2023-01-27T15:50:38.990Z,30.52
2023-01-27T15:53:17.815Z,26.70
2023-01-27T15:55:53.604Z,25.52
2023-01-27T15:58:35.767Z,26.93
2023-01-27T16:01:04.573Z,29.73
2023-01-27T16:03:45.490Z,29.70
2023-01-27T16:06:17.947Z,27.17
2023-01-27T16:08:48.722Z,26.02
2023-01-27T16:11:25.321Z,26.40
2023-01-27T16:13:52.987Z,25.95
2023-01-27T16:16:20.367Z,29.73
2023-01-27T16:19:01.222Z,30.02
2023-01-27T16:21:42.391Z,22.85
2023-01-27T16:24:31.299Z,32.53
2023-01-27T16:27:09.024Z,24.08
2023-01-27T16:29:50.343Z,29.05
2023-01-27T16:32:19.360Z,29.27
2023-01-27T16:34:47.956Z,30.70
2023-01-27T16:37:25.212Z,29.00
2023-01-27T16:40:15.325Z,25.33
2023-01-27T16:42:53.178Z,29.77
2023-01-27T16:45:25.316Z,23.92
2023-01-27T16:47:52.716Z,28.80
2023-01-27T16:50:37.201Z,32.77
2023-01-27T16:53:05.973Z,24.33
2023-01-27T16:55:33.360Z,24.88
2023-01-27T16:58:00.813Z,28.77
2023-01-27T17:00:37.214Z,26.23
2023-01-27T17:03:08.699Z,29.13
2023-01-27T17:05:36.055Z,27.80
2023-01-27T17:08:04.696Z,27.98
2023-01-27T17:10:35.147Z,30.42
2023-01-27T17:13:28.472Z,30.27
2023-01-27T17:15:56.254Z,32.40
2023-01-27T17:18:26.013Z,26.17
2023-01-27T17:20:53.575Z,27.40
2023-01-27T17:23:39.515Z,34.10
2023-01-27T17:26:27.965Z,31.77
2023-01-27T17:28:55.362Z,33.17
2023-01-27T17:31:23.878Z,32.17
2023-01-27T17:33:58.332Z,28.35
2023-01-27T17:36:25.748Z,31.42
2023-01-27T17:38:54.647Z,27.63
2023-01-27T17:41:36.029Z,22.57
2023-01-27T17:44:09.704Z,23.42
2023-01-27T17:46:37.410Z,24.33
2023-01-27T17:49:11.233Z,30.90
2023-01-27T17:51:42.575Z,30.35
2023-01-27T17:54:41.714Z,38.43
2023-01-27T17:57:21.538Z,33.05
2023-01-27T18:00:04.632Z,31.08
2023-01-27T18:02:54.891Z,28.38
2023-01-27T18:05:24.241Z,31.95
2023-01-27T18:07:51.580Z,29.67
2023-01-27T18:10:23.037Z,26.13
2023-01-27T18:12:50.409Z,30.08
2023-01-27T18:15:38.684Z,29.33
2023-01-27T18:18:23.736Z,28.15
2023-01-27T18:21:09.287Z,23.33
2023-01-27T18:23:38.436Z,28.67
2023-01-27T18:26:18.148Z,29.98
2023-01-27T18:28:46.010Z,28.05
2023-01-27T18:31:25.295Z,33.97
2023-01-27T18:34:26.383Z,25.40
2023-01-27T18:37:08.868Z,30.98
2023-01-27T18:39:40.695Z,27.17
2023-01-27T18:42:16.199Z,30.77
2023-01-27T18:44:43.746Z,30.50
2023-01-27T18:47:20.475Z,31.07
2023-01-27T18:49:56.607Z,29.25
2023-01-27T18:52:24.057Z,21.00
2023-01-27T18:54:53.929Z,21.77
2023-01-27T18:57:21.428Z,24.50
2023-01-27T18:59:48.780Z,27.67
2023-01-27T19:02:16.241Z,27.48
2023-01-27T19:04:43.609Z,26.42
2023-01-27T19:07:15.989Z,26.70
2023-01-27T19:09:44.369Z,31.52
2023-01-27T19:12:12.203Z,30.50
2023-01-27T19:14:42.017Z,29.73
2023-01-27T19:17:23.249Z,29.63
2023-01-27T19:19:50.644Z,24.25
2023-01-27T19:22:18.728Z,28.73
2023-01-27T19:24:46.450Z,30.27
2023-01-27T19:27:14.780Z,27.98
2023-01-27T19:29:42.358Z,27.05
2023-01-27T19:32:13.918Z,25.77
2023-01-27T19:34:41.454Z,35.45
2023-01-27T19:37:18.603Z,21.47
2023-01-27T19:39:46.730Z,31.58
2023-01-27T19:42:15.056Z,31.60
2023-01-27T19:44:42.542Z,29.70
2023-01-27T19:47:13.854Z,28.10
2023-01-27T19:49:41.937Z,33.17
2023-01-27T19:52:10.207Z,25.60
2023-01-27T19:54:37.555Z,29.27
2023-01-27T19:57:06.542Z,29.40
2023-01-27T19:59:34.005Z,31.20
2023-01-27T20:02:01.381Z,30.90
2023-01-27T20:04:29.046Z,31.02
2023-01-27T20:06:56.394Z,23.88
2023-01-27T20:09:23.755Z,29.67
2023-01-27T20:11:51.171Z,27.40
2023-01-27T20:14:19.403Z,25.33
2023-01-27T20:16:47.103Z,32.20
2023-01-27T20:19:15.429Z,18.65
2023-01-27T20:21:43.560Z,32.15
2023-01-27T20:24:17.718Z,21.60
2023-01-27T20:26:45.425Z,21.87
2023-01-27T20:29:14.218Z,26.52
2023-01-27T20:31:42.016Z,31.63
2023-01-27T20:34:09.441Z,24.90
2023-01-27T20:36:37.036Z,31.45
2023-01-27T20:39:04.542Z,31.33
2023-01-27T20:41:31.940Z,27.85
2023-01-27T20:44:00.682Z,24.83
2023-01-27T20:46:28.727Z,29.50
2023-01-27T20:48:56.617Z,24.63
2023-01-27T20:51:23.984Z,25.03
2023-01-27T20:53:51.353Z,22.17
2023-01-27T20:56:23.022Z,22.92
2023-01-27T20:58:50.440Z,27.70
2023-01-27T21:01:19.381Z,19.75
2023-01-27T21:03:46.783Z,26.27
2023-01-27T21:06:15.789Z,23.48
2023-01-27T21:08:43.798Z,25.17
2023-01-27T21:11:13.126Z,22.10
2023-01-27T21:13:40.676Z,27.73
2023-01-27T21:16:08.131Z,25.30
2023-01-27T21:18:36.170Z,26.17
2023-01-27T21:21:04.289Z,29.38
2023-01-27T21:23:33.223Z,24.90
2023-01-27T21:26:04.945Z,28.20
2023-01-27T21:28:34.001Z,27.27
2023-01-27T21:31:08.358Z,23.48
2023-01-27T21:33:36.426Z,21.40
2023-01-27T21:36:04.789Z,18.77
2023-01-27T21:38:32.634Z,25.77
2023-01-27T21:41:06.746Z,24.37
2023-01-27T21:43:52.598Z,30.52
2023-01-27T21:46:20.010Z,26.75
2023-01-27T21:48:47.654Z,22.80
2023-01-27T21:51:15.140Z,23.75
2023-01-27T21:53:42.364Z,28.13
2023-01-27T21:56:10.518Z,25.42
2023-01-27T21:58:37.840Z,27.48
2023-01-27T22:01:09.034Z,28.80
2023-01-27T22:03:36.787Z,25.55
2023-01-27T22:06:07.851Z,27.83
2023-01-27T22:08:35.402Z,26.40
2023-01-27T22:11:04.340Z,27.77
2023-01-27T22:13:31.748Z,23.88
2023-01-27T22:15:59.577Z,25.90
2023-01-27T22:18:26.984Z,28.20
2023-01-27T22:20:54.294Z,25.23
2023-01-27T22:23:23.788Z,22.20
2023-01-27T22:25:51.321Z,25.23
2023-01-27T22:28:19.280Z,23.63
2023-01-27T22:30:46.559Z,24.23
2023-01-27T22:33:13.949Z,21.33
2023-01-27T22:35:41.241Z,26.08
2023-01-27T22:38:08.698Z,23.13
2023-01-27T22:40:36.000Z,26.35
2023-01-27T22:43:09.535Z,30.20
2023-01-27T22:45:40.186Z,29.73
2023-01-27T22:48:09.045Z,22.73
2023-01-27T22:50:36.918Z,25.85
2023-01-27T22:53:05.543Z,27.30
2023-01-27T22:55:33.281Z,22.93
2023-01-27T22:58:00.583Z,23.02
2023-01-27T23:00:27.836Z,26.65
2023-01-27T23:02:55.194Z,27.90
2023-01-27T23:05:22.465Z,24.02
2023-01-27T23:07:49.788Z,27.00
2023-01-27T23:10:17.361Z,27.02
2023-01-27T23:12:44.799Z,21.23
2023-01-27T23:15:12.520Z,17.80
2023-01-27T23:17:40.091Z,22.90
2023-01-27T23:20:10.761Z,19.63
2023-01-27T23:22:38.161Z,23.70
2023-01-27T23:25:06.412Z,19.27
2023-01-27T23:27:33.952Z,23.73
2023-01-27T23:30:01.236Z,23.65
2023-01-27T23:32:28.574Z,23.10
2023-01-27T23:34:55.882Z,19.02
2023-01-27T23:37:23.250Z,17.05
2023-01-27T23:39:50.524Z,21.23
2023-01-27T23:42:18.126Z,22.63
2023-01-27T23:44:45.526Z,22.43
2023-01-27T23:47:13.148Z,23.05
2023-01-27T23:49:40.424Z,22.65
2023-01-27T23:52:07.872Z,20.23
2023-01-27T23:54:35.144Z,17.23
2023-01-27T23:57:02.764Z,22.17
2023-01-27T23:59:30.065Z,23.70
